»·PEaware :: DAL1699 KLAS-KLAX

DAL1699 :: KLAS-KLAX

FLIGHT INFORMATION

Flight Status: Arrived
Operator:
Delta Air Lines
More flights by this operator :: More flights under this callsign
Pilot: Taylor M. (19061)
Aircraft: BOEING 737-800
(B738)
More flights by this aircraft type
Origin: KLAS McCarran Intl
United States
Destination: KLAX Los Angeles Intl
United States
More flights between these airports :: More routes between these airports
Route: +BOACH8 RIKII SHTNR ANJLL2
File this flight plan on PilotEdge
Remarks: PBN / A1B1C1D1S1S2 NAV / RNP2 DOF / 180517 REG / N806SB OPR / DAL ORGN / YSSYSBQF RMK / TCAS SIMBRIEF
Altitude:
(Current/Filed)
36,000ft
Speed:
(Current/Filed)
459kts
Departed: 16-May-18 06:05 PM
Arrived: 16-May-18 06:53 PM
Distance/Time
Traveled:
205nm/0:48
Distance/Time
To Go:
Arrived

Flight Plot

Page will automatically refresh every two minutes.

Flight plan parsing failed; only flown route is shown


Map Options




Map Legend


Flown Route
Filed Route
Departure Airport
Arrival Airport
Navaid (VOR, NDB)
Fix

Horizontal Profiles

Position Reports

Time Latitude Longitude Heading Altitude Ground
Speed
16-May-18 17:46 36.090122 -115.154226 270 2099ft 0kts
16-May-18 17:47 36.090122 -115.154226 270 2099ft 0kts
16-May-18 17:48 36.090122 -115.154226 270 2099ft 0kts
16-May-18 17:49 36.090122 -115.154226 270 2099ft 0kts
16-May-18 17:50 36.090122 -115.154226 270 2099ft 0kts
16-May-18 17:51 36.090122 -115.154226 270 2099ft 0kts
16-May-18 17:52 36.090122 -115.154226 270 2099ft 0kts
16-May-18 17:53 36.090122 -115.154226 270 2099ft 0kts
16-May-18 17:54 36.090122 -115.154226 270 2099ft 0kts
16-May-18 17:55 36.090122 -115.154226 270 2099ft 0kts
16-May-18 17:56 36.090122 -115.154226 270 2099ft 0kts
16-May-18 17:57 36.090122 -115.154226 270 2099ft 0kts
16-May-18 17:58 36.090122 -115.154226 270 2099ft 0kts
16-May-18 17:59 36.090122 -115.154226 270 2099ft 0kts
16-May-18 18:00 36.090170 -115.154711 289 2100ft 3kts
16-May-18 18:01 36.092448 -115.154945 25 2096ft 17kts
16-May-18 18:02 36.097465 -115.152025 5 2077ft 13kts
16-May-18 18:03 36.097963 -115.152279 304 2076ft 0kts
16-May-18 18:04 36.098133 -115.152687 293 2077ft 10kts
16-May-18 18:05 36.089492 -115.158745 206 2117ft 128kts
16-May-18 18:06 36.048217 -115.181434 209 4340ft 182kts
16-May-18 18:07 36.002548 -115.224349 239 6150ft 256kts
16-May-18 18:08 35.957931 -115.295435 202 9041ft 273kts
16-May-18 18:09 35.880053 -115.310434 188 11792ft 307kts
16-May-18 18:10 35.793718 -115.307207 179 14949ft 321kts
16-May-18 18:11 35.703601 -115.297027 179 17826ft 331kts
16-May-18 18:12 35.611914 -115.295121 187 18910ft 332kts
16-May-18 18:13 35.519047 -115.299534 188 20104ft 335kts
16-May-18 18:14 35.439183 -115.346091 214 22373ft 332kts
16-May-18 18:15 35.359978 -115.405287 213 24454ft 339kts
16-May-18 18:16 35.279432 -115.464398 214 26320ft 345kts
16-May-18 18:17 35.199311 -115.522853 214 28448ft 337kts
16-May-18 18:18 35.121392 -115.581294 224 30053ft 325kts
16-May-18 18:19 35.065456 -115.667138 232 30827ft 333kts
16-May-18 18:20 35.005459 -115.761957 232 30907ft 373kts
16-May-18 18:21 34.940268 -115.864049 233 31945ft 385kts
16-May-18 18:22 34.875040 -115.965715 233 31966ft 382kts
16-May-18 18:23 34.809734 -116.067178 233 31965ft 382kts
16-May-18 18:24 34.744358 -116.168424 233 31962ft 382kts
16-May-18 18:25 34.685382 -116.259491 234 31944ft 382kts
16-May-18 18:26 34.685382 -116.259491 234 31944ft 382kts
16-May-18 18:27 34.653896 -116.308014 234 31940ft 382kts
16-May-18 18:28 34.588836 -116.408040 233 31454ft 369kts
16-May-18 18:29 34.525623 -116.504996 233 29640ft 369kts
16-May-18 18:30 34.462461 -116.601599 233 27725ft 364kts
16-May-18 18:31 34.421313 -116.664382 233 26418ft 360kts
16-May-18 18:32 34.362506 -116.753661 233 24541ft 355kts
16-May-18 18:33 34.302068 -116.845211 232 22681ft 349kts
16-May-18 18:34 34.242001 -116.936004 232 20842ft 343kts
16-May-18 18:35 34.195502 -117.032038 250 18988ft 332kts
16-May-18 18:36 34.167861 -117.137337 250 17190ft 331kts
16-May-18 18:37 34.139820 -117.241136 250 15694ft 328kts
16-May-18 18:38 34.111433 -117.344972 250 14281ft 326kts
16-May-18 18:39 34.085357 -117.446412 252 12747ft 305kts
16-May-18 18:40 34.063771 -117.545183 257 11236ft 304kts
16-May-18 18:41 34.047738 -117.642638 258 9760ft 293kts
16-May-18 18:42 34.031885 -117.737375 257 8335ft 289kts
16-May-18 18:43 34.016647 -117.827591 257 7450ft 257kts
16-May-18 18:44 34.002472 -117.910877 258 4702ft 252kts
16-May-18 18:45 33.982996 -117.990310 255 3011ft 249kts
16-May-18 18:46 33.970008 -118.071556 261 2991ft 248kts
16-May-18 18:47 33.962962 -118.133809 262 2977ft 213kts
16-May-18 18:48 33.956223 -118.199223 262 2995ft 191kts
16-May-18 18:49 33.949654 -118.263639 262 2074ft 195kts
16-May-18 18:50 33.943758 -118.321422 261 1103ft 144kts
16-May-18 18:51 33.939278 -118.364658 261 432ft 127kts
16-May-18 18:52 33.935681 -118.397980 261 112ft 45kts
16-May-18 18:53 33.934062 -118.403600 252 120ft 5kts
16-May-18 18:54 33.933783 -118.405005 237 122ft 2kts
16-May-18 18:55 33.933394 -118.405395 224 122ft 8kts
16-May-18 18:56 33.932624 -118.405667 177 122ft 0kts

Navigation Log

Ident Type
Flight plan parsing failed, navigation log unavailable